Hector N — 3FEL3 — position and weather

sailwx.info

Track history (hours):
 
Tides and Currents Weather Stations Pressure Air Temp Water Temp Dewpoint Dewpoint Depression Visibility Wind Speed Wind Dir Waves Ship Positions

Hector N

Last reported at 2018-Jul-21 13:00 UTC. Time now 2018-Jul-21 15:31 UTC.
Position N 40°35' W 074°13'.

Length 183 m; draft 8.2 m.

Type: Tanker. MMSI: 356251000.

Date/timePositionNaut miles runAvg speedWind from/ knotsBaromVisibWave heightAir tempDewpointWater temp
2018-Jul-21 13:00N 40°35' W 074°13'1 1.8
2018-Jul-21 12:30N 40°34' W 074°13'4 3.0
2018-Jul-21 11:08N 40°30' W 074°11'111.0
2018-Jul-21 11:00N 40°30' W 074°09'510.5
2018-Jul-21 10:30N 40°29' W 074°03'4 8.8
2018-Jul-21 10:00N 40°28' W 073°57'5 9.7
2018-Jul-21 09:28N 40°26' W 073°51'11 2.4
2018-Jul-21 04:38N 40°30' W 073°37'0 0.0
2018-Jul-21 04:26N 40°30' W 073°37'0 0.0
2018-Jul-21 03:53N 40°30' W 073°37'0 0.0
2018-Jul-21 03:29N 40°30' W 073°37'1 2.9
2018-Jul-21 03:00N 40°30' W 073°38'1110.7
2018-Jul-21 01:57N 40°21' W 073°46'54211.6
2018-Jul-19 03:06N 32°40' W 079°42'111.9
2018-Jul-19 03:00N 32°41' W 079°43'611.9
2018-Jul-19 02:30N 32°44' W 079°49'4 8.0
2018-Jul-19 02:00N 32°46' W 079°53'0 0.0
2018-Jul-19 01:30N 32°46' W 079°53'0 0.4
2018-Jul-19 01:00N 32°46' W 079°53'0 0.1
2018-Jul-19 00:27N 32°46' W 079°53'0 0.0
2018-Jul-19 00:00N 32°46' W 079°53'0 0.0
2018-Jul-18 23:30N 32°46' W 079°53'0 0.0
2018-Jul-18 22:57N 32°46' W 079°53'0 0.0
2018-Jul-18 22:30N 32°46' W 079°53'0 0.0
2018-Jul-18 22:00N 32°46' W 079°53'0 0.0
2018-Jul-18 21:30N 32°46' W 079°53'0 0.0
2018-Jul-18 21:00N 32°46' W 079°53'0 0.0
2018-Jul-18 20:30N 32°46' W 079°53'0 0.0
2018-Jul-18 20:00N 32°46' W 079°53'0 0.1
2018-Jul-18 19:30N 32°46' W 079°53'0 0.1
2018-Jul-18 19:00N 32°46' W 079°53'0 0.2
2018-Jul-18 18:29N 32°46' W 079°53'0 0.4
2018-Jul-18 18:00N 32°46' W 079°53'4 7.2
2018-Jul-18 17:30N 32°49' W 079°56'0 0.0
2018-Jul-18 04:08N 32°50' W 079°56'0 0.0
2018-Jul-18 03:59N 32°50' W 079°56'0 0.0
2018-Jul-18 01:19N 32°50' W 079°56'0 1.2
2018-Jul-18 01:00N 32°49' W 079°56'3 5.7
2018-Jul-18 00:30N 32°47' W 079°54'  
Track history (hours):
 
Tides and Currents Weather Stations Pressure Air Temp Water Temp Dewpoint Dewpoint Depression Visibility Wind Speed Wind Dir Waves Ship Positions

Hector N

Last reported at 2018-Jul-21 13:00 UTC. Time now 2018-Jul-21 15:31 UTC.
Position N 40°35' W 074°13'.

Length 183 m; draft 8.2 m.

Type: Tanker. MMSI: 356251000.

Date/timePositionNaut miles runAvg speedWind from/ knotsBaromVisibWave heightAir tempDewpointWater temp
2018-Jul-21 13:00N 40°35' W 074°13'1 1.8
2018-Jul-21 12:30N 40°34' W 074°13'4 3.0
2018-Jul-21 11:08N 40°30' W 074°11'111.0
2018-Jul-21 11:00N 40°30' W 074°09'510.5
2018-Jul-21 10:30N 40°29' W 074°03'4 8.8
2018-Jul-21 10:00N 40°28' W 073°57'5 9.7
2018-Jul-21 09:28N 40°26' W 073°51'11 2.4
2018-Jul-21 04:38N 40°30' W 073°37'0 0.0
2018-Jul-21 04:26N 40°30' W 073°37'0 0.0
2018-Jul-21 03:53N 40°30' W 073°37'0 0.0
2018-Jul-21 03:29N 40°30' W 073°37'1 2.9
2018-Jul-21 03:00N 40°30' W 073°38'1110.7
2018-Jul-21 01:57N 40°21' W 073°46'54211.6
2018-Jul-19 03:06N 32°40' W 079°42'111.9
2018-Jul-19 03:00N 32°41' W 079°43'611.9
2018-Jul-19 02:30N 32°44' W 079°49'4 8.0
2018-Jul-19 02:00N 32°46' W 079°53'0 0.0
2018-Jul-19 01:30N 32°46' W 079°53'0 0.4
2018-Jul-19 01:00N 32°46' W 079°53'0 0.1
2018-Jul-19 00:27N 32°46' W 079°53'0 0.0
2018-Jul-19 00:00N 32°46' W 079°53'0 0.0
2018-Jul-18 23:30N 32°46' W 079°53'0 0.0
2018-Jul-18 22:57N 32°46' W 079°53'0 0.0
2018-Jul-18 22:30N 32°46' W 079°53'0 0.0
2018-Jul-18 22:00N 32°46' W 079°53'0 0.0
2018-Jul-18 21:30N 32°46' W 079°53'0 0.0
2018-Jul-18 21:00N 32°46' W 079°53'0 0.0
2018-Jul-18 20:30N 32°46' W 079°53'0 0.0
2018-Jul-18 20:00N 32°46' W 079°53'0 0.1
2018-Jul-18 19:30N 32°46' W 079°53'0 0.1
2018-Jul-18 19:00N 32°46' W 079°53'0 0.2
2018-Jul-18 18:29N 32°46' W 079°53'0 0.4
2018-Jul-18 18:00N 32°46' W 079°53'4 7.2
2018-Jul-18 17:30N 32°49' W 079°56'0 0.0
2018-Jul-18 04:08N 32°50' W 079°56'0 0.0
2018-Jul-18 03:59N 32°50' W 079°56'0 0.0
2018-Jul-18 01:19N 32°50' W 079°56'0 1.2
2018-Jul-18 01:00N 32°49' W 079°56'3 5.7
2018-Jul-18 00:30N 32°47' W 079°54'  

Dump ship's entire track history